createdAt,value
2022-09-11T00:04:20.600Z,26.28
2022-09-11T00:09:27.868Z,26.23
2022-09-11T00:14:35.027Z,26.17
2022-09-11T00:19:42.226Z,26.08
2022-09-11T00:24:49.464Z,26.01
2022-09-11T00:29:56.633Z,25.96
2022-09-11T00:35:03.811Z,25.93
2022-09-11T00:40:11.091Z,25.91
2022-09-11T00:45:18.269Z,25.87
2022-09-11T00:50:25.421Z,25.84
2022-09-11T00:55:32.665Z,25.81
2022-09-11T01:00:39.882Z,25.78
2022-09-11T01:05:47.005Z,25.78
2022-09-11T01:10:54.315Z,25.70
2022-09-11T01:16:01.473Z,25.71
2022-09-11T01:21:08.651Z,25.72
2022-09-11T01:26:15.865Z,25.71
2022-09-11T01:31:23.116Z,25.69
2022-09-11T01:36:30.279Z,25.68
2022-09-11T01:41:37.510Z,25.68
2022-09-11T01:46:44.681Z,25.65
2022-09-11T01:51:51.895Z,25.66
2022-09-11T01:56:59.938Z,25.68
2022-09-11T02:02:07.227Z,25.70
2022-09-11T02:07:14.356Z,25.73
2022-09-11T02:12:21.618Z,25.71
2022-09-11T02:17:28.746Z,25.71
2022-09-11T02:22:35.918Z,25.68
2022-09-11T02:27:43.171Z,25.69
2022-09-11T02:32:50.315Z,25.70
2022-09-11T02:37:57.496Z,25.72
2022-09-11T02:43:04.815Z,25.71
2022-09-11T02:48:12.038Z,25.72
2022-09-11T02:53:19.290Z,25.71
2022-09-11T02:58:26.462Z,25.71
2022-09-11T03:03:33.751Z,25.73
2022-09-11T03:08:40.882Z,25.74
2022-09-11T03:13:48.085Z,25.74
2022-09-11T03:18:55.300Z,25.75
2022-09-11T03:24:02.519Z,25.70
2022-09-11T03:29:09.725Z,25.73
2022-09-11T03:34:16.954Z,25.74
2022-09-11T03:39:24.212Z,25.76
2022-09-11T03:44:31.457Z,25.76
2022-09-11T03:49:38.657Z,25.75
2022-09-11T03:54:46.133Z,25.75
2022-09-11T03:59:53.363Z,25.73
2022-09-11T04:05:00.519Z,25.76
2022-09-11T04:10:07.664Z,25.75
2022-09-11T04:15:14.967Z,25.76
2022-09-11T04:20:22.126Z,25.78
2022-09-11T04:25:29.382Z,25.77
2022-09-11T04:30:36.597Z,25.77
2022-09-11T04:35:43.780Z,25.75
2022-09-11T04:40:50.986Z,25.74
2022-09-11T04:45:58.295Z,25.74
2022-09-11T04:51:05.438Z,25.77
2022-09-11T04:56:12.597Z,25.78
2022-09-11T05:01:19.861Z,25.78
2022-09-11T05:06:27.045Z,25.77
2022-09-11T05:11:34.208Z,25.77
2022-09-11T05:16:41.487Z,25.78
2022-09-11T05:21:48.636Z,25.82
2022-09-11T05:26:55.822Z,25.81
2022-09-11T05:32:03.040Z,25.82
2022-09-11T05:37:10.235Z,25.81
2022-09-11T05:42:17.490Z,25.80
2022-09-11T05:47:24.659Z,25.80
2022-09-11T05:52:31.888Z,25.84
2022-09-11T05:57:39.068Z,25.85
2022-09-11T06:02:46.292Z,25.84
2022-09-11T06:07:53.466Z,25.84
2022-09-11T06:13:00.675Z,25.83
2022-09-11T06:18:07.936Z,25.85
2022-09-11T06:23:15.094Z,25.87
2022-09-11T06:28:22.352Z,25.88
2022-09-11T06:33:29.624Z,25.89
2022-09-11T06:38:36.849Z,25.87
2022-09-11T06:43:44.226Z,25.86
2022-09-11T06:48:51.381Z,25.86
2022-09-11T06:53:58.503Z,25.86
2022-09-11T06:59:05.723Z,25.87
2022-09-11T07:04:12.941Z,25.88
2022-09-11T07:09:20.118Z,25.84
2022-09-11T07:14:27.354Z,25.84
2022-09-11T07:19:34.601Z,25.85
2022-09-11T07:24:41.766Z,25.86
2022-09-11T07:29:49.056Z,25.88
2022-09-11T07:34:56.251Z,25.87
2022-09-11T07:40:03.415Z,25.87
2022-09-11T07:45:10.565Z,25.87
2022-09-11T07:50:17.829Z,25.89
2022-09-11T07:55:24.968Z,25.90
2022-09-11T08:00:36.516Z,25.77
2022-09-11T08:05:39.434Z,25.66
2022-09-11T08:10:46.615Z,25.53
2022-09-11T08:15:53.800Z,25.49
2022-09-11T08:21:01.024Z,25.45
2022-09-11T08:26:08.210Z,25.36
2022-09-11T08:31:15.455Z,25.35
2022-09-11T08:36:22.638Z,25.33
2022-09-11T08:41:29.815Z,25.31
2022-09-11T08:46:37.079Z,25.31
2022-09-11T08:51:44.345Z,25.32
2022-09-11T08:56:51.532Z,25.31
2022-09-11T09:01:58.759Z,25.39
2022-09-11T09:07:05.952Z,25.46
2022-09-11T09:12:13.145Z,25.41
2022-09-11T09:17:20.343Z,25.41
2022-09-11T09:22:27.571Z,25.44
2022-09-11T09:27:34.861Z,25.48
2022-09-11T09:32:42.069Z,25.44
2022-09-11T09:37:49.294Z,25.40
2022-09-11T09:42:56.690Z,25.33
2022-09-11T09:48:04.110Z,25.28
2022-09-11T09:53:11.524Z,25.27
2022-09-11T09:58:18.746Z,25.30
2022-09-11T10:03:26.021Z,25.37
2022-09-11T10:08:33.388Z,25.27
2022-09-11T10:13:40.441Z,25.25
2022-09-11T10:18:47.648Z,25.25
2022-09-11T10:23:54.934Z,25.25
2022-09-11T10:29:02.129Z,25.20
2022-09-11T10:34:09.334Z,25.20
2022-09-11T10:39:16.535Z,25.26
2022-09-11T10:44:23.758Z,25.17
2022-09-11T10:49:30.952Z,25.20
2022-09-11T10:54:38.242Z,25.26
2022-09-11T10:59:45.471Z,25.25
2022-09-11T11:04:52.686Z,25.17
2022-09-11T11:09:59.900Z,25.04
2022-09-11T11:15:07.135Z,25.08
2022-09-11T11:20:14.278Z,25.15
2022-09-11T11:25:21.512Z,25.12
2022-09-11T11:30:28.619Z,25.16
2022-09-11T11:35:35.834Z,25.16
2022-09-11T11:40:43.080Z,25.04
2022-09-11T11:45:50.356Z,24.91
2022-09-11T11:50:57.581Z,24.83
2022-09-11T11:56:04.909Z,24.84
2022-09-11T12:01:12.135Z,24.83
2022-09-11T12:06:19.556Z,24.66
2022-09-11T12:11:26.868Z,24.68
2022-09-11T12:16:34.166Z,24.71
2022-09-11T12:21:41.244Z,24.77
2022-09-11T12:26:48.838Z,24.81
2022-09-11T12:31:56.290Z,24.88
2022-09-11T12:37:03.493Z,24.88
2022-09-11T12:42:10.737Z,24.93
2022-09-11T12:47:17.899Z,24.99
2022-09-11T12:52:25.111Z,25.02
2022-09-11T12:57:32.319Z,25.02
2022-09-11T13:02:39.515Z,24.97
2022-09-11T13:07:46.681Z,24.89
2022-09-11T13:12:53.935Z,24.81
2022-09-11T13:18:01.050Z,24.78
2022-09-11T13:23:08.275Z,24.67
2022-09-11T13:28:21.388Z,24.63
2022-09-11T13:33:22.734Z,24.62
2022-09-11T13:38:29.932Z,24.67
2022-09-11T13:43:37.249Z,24.60
2022-09-11T13:48:44.607Z,24.60
2022-09-11T13:53:51.988Z,24.57
2022-09-11T13:59:02.752Z,24.57
2022-09-11T14:04:06.467Z,24.63
2022-09-11T14:09:13.698Z,24.61
2022-09-11T14:14:20.964Z,24.63
2022-09-11T14:19:28.205Z,24.66
2022-09-11T14:24:35.457Z,24.61
2022-09-11T14:29:42.624Z,24.59
2022-09-11T14:34:49.793Z,24.62
2022-09-11T14:39:57.013Z,24.63
2022-09-11T14:45:04.132Z,24.62
2022-09-11T14:50:11.304Z,24.58
2022-09-11T14:55:18.577Z,24.58
2022-09-11T15:00:25.777Z,24.61
2022-09-11T15:05:32.947Z,24.63
2022-09-11T15:10:40.161Z,24.65
2022-09-11T15:15:47.466Z,24.71
2022-09-11T15:20:54.667Z,24.80
2022-09-11T15:26:01.865Z,24.84
2022-09-11T15:31:09.124Z,24.89
2022-09-11T15:36:16.285Z,24.91
2022-09-11T15:41:23.485Z,24.94
2022-09-11T15:46:30.879Z,24.96
2022-09-11T15:51:37.977Z,24.98
2022-09-11T15:56:45.215Z,25.00
2022-09-11T16:01:52.506Z,25.01
2022-09-11T16:06:59.595Z,25.06
2022-09-11T16:12:06.809Z,25.08
2022-09-11T16:17:14.040Z,25.14
2022-09-11T16:22:21.250Z,25.14
2022-09-11T16:27:28.510Z,25.12
2022-09-11T16:32:35.738Z,25.13
2022-09-11T16:37:42.916Z,25.17
2022-09-11T16:42:50.146Z,25.20
2022-09-11T16:47:57.398Z,25.20
2022-09-11T16:53:04.556Z,25.20
2022-09-11T16:58:13.066Z,25.17
2022-09-11T17:03:20.297Z,25.15
2022-09-11T17:08:27.432Z,25.16
2022-09-11T17:13:34.644Z,25.14
2022-09-11T17:18:41.872Z,25.12
2022-09-11T17:23:49.009Z,25.12
2022-09-11T17:28:56.499Z,25.15
2022-09-11T17:34:03.944Z,25.12
2022-09-11T17:39:11.133Z,25.02
2022-09-11T17:44:18.373Z,24.94
2022-09-11T17:49:25.853Z,24.80
2022-09-11T17:54:33.147Z,24.76
2022-09-11T17:59:40.555Z,24.75
2022-09-11T18:04:48.090Z,24.70
2022-09-11T18:09:56.474Z,24.61
2022-09-11T18:15:02.982Z,24.55
2022-09-11T18:20:10.316Z,24.56
2022-09-11T18:25:19.691Z,24.64
2022-09-11T18:30:24.884Z,24.67
2022-09-11T18:35:32.353Z,24.71
2022-09-11T18:40:40.030Z,24.73
2022-09-11T18:45:47.748Z,24.75
2022-09-11T18:50:55.383Z,24.76
2022-09-11T18:56:02.869Z,24.83
2022-09-11T19:01:10.469Z,24.84
2022-09-11T19:06:18.028Z,24.86
2022-09-11T19:11:25.437Z,24.90
2022-09-11T19:16:33.072Z,24.88
2022-09-11T19:21:40.661Z,24.88
2022-09-11T19:26:48.258Z,24.90
2022-09-11T19:31:55.905Z,24.88
2022-09-11T19:37:03.528Z,24.86
2022-09-11T19:42:10.862Z,24.89
2022-09-11T19:47:18.105Z,24.89
2022-09-11T19:52:27.771Z,24.83
2022-09-11T19:57:32.693Z,24.85
2022-09-11T20:02:40.015Z,24.89
2022-09-11T20:07:47.358Z,24.88
2022-09-11T20:12:54.518Z,24.90
2022-09-11T20:18:01.747Z,24.90
2022-09-11T20:23:08.987Z,24.88
2022-09-11T20:28:16.119Z,24.89
2022-09-11T20:33:23.368Z,24.91
2022-09-11T20:38:30.587Z,24.86
2022-09-11T20:43:37.812Z,24.86
2022-09-11T20:48:44.961Z,24.93
2022-09-11T20:53:52.197Z,24.99
2022-09-11T20:59:00.615Z,25.00
2022-09-11T21:04:06.643Z,25.01
2022-09-11T21:09:13.908Z,25.02
2022-09-11T21:14:21.090Z,25.07
2022-09-11T21:19:28.329Z,25.09
2022-09-11T21:24:35.612Z,25.11
2022-09-11T21:29:42.825Z,25.11
2022-09-11T21:34:50.031Z,25.15
2022-09-11T21:39:57.260Z,25.20
2022-09-11T21:45:04.369Z,25.19
2022-09-11T21:50:11.508Z,25.21
2022-09-11T21:55:18.809Z,25.24
2022-09-11T22:00:26.051Z,25.30
2022-09-11T22:05:33.258Z,25.17
2022-09-11T22:10:40.475Z,25.21
2022-09-11T22:15:47.676Z,25.18
2022-09-11T22:20:54.845Z,25.21
2022-09-11T22:26:02.085Z,25.20
2022-09-11T22:31:09.347Z,25.20
2022-09-11T22:36:16.493Z,25.22
2022-09-11T22:41:23.727Z,25.25
2022-09-11T22:46:31.005Z,25.31
2022-09-11T22:51:38.253Z,25.40
2022-09-11T22:56:46.534Z,25.41
2022-09-11T23:01:53.842Z,25.47
2022-09-11T23:07:01.095Z,25.51
2022-09-11T23:12:08.311Z,25.54
2022-09-11T23:17:16.618Z,25.46
2022-09-11T23:22:24.096Z,25.41
2022-09-11T23:27:31.372Z,25.40
2022-09-11T23:32:41.786Z,25.35
2022-09-11T23:37:45.898Z,25.31
2022-09-11T23:42:53.128Z,25.25
2022-09-11T23:48:00.315Z,25.24
2022-09-11T23:53:07.514Z,25.21
2022-09-11T23:58:14.743Z,25.19
